Time;durP1;ratioP1;P1;durP2;ratioP2;P2;SDS_P1;SDS_P2;PMS_P1;PMS_P2;Temp;Humidity;BMP_temperature;BMP_pressure;BME280_temperature;BME280_humidity;BME280_pressure;Samples;Min_cycle;Max_cycle;Signal;HPM_P1;HPM_P2
2023/01/21 00:01:19;;;;;;;;;;;;;;;18.21;59.19;101760.41;2381065;74;51504;-73
2023/01/21 00:04:21;;;;;;;;;;;;;;;18.25;59.11;101756.91;2367421;73;51427;-72
2023/01/21 00:07:24;;;;;;;;;;;;;;;18.23;59.11;101769.11;2342161;73;51173;-72
2023/01/21 00:10:26;;;;;;;;;;;;;;;18.21;59.05;101771.12;2367825;74;50844;-72
2023/01/21 00:13:27;;;;;;;;;;;;;;;18.17;59.13;101771.58;2339870;74;53607;-72
2023/01/21 00:16:29;;;;;;;;;;;;;;;18.12;59.21;101772.53;2371456;74;51441;-73
2023/01/21 00:19:31;;;;;;;;;;;;;;;18.05;59.22;101773.13;2322888;74;52708;-73
2023/01/21 00:22:32;;;;;;;;;;;;;;;18.00;59.37;101778.09;2377355;73;51454;-73
2023/01/21 00:25:34;;;;;;;;;;;;;;;17.96;59.50;101768.70;2379957;74;51590;-73
2023/01/21 00:28:36;;;;;;;;;;;;;;;17.95;59.55;101779.05;2357202;74;51451;-73
2023/01/21 00:31:38;;;;;;;;;;;;;;;18.00;59.40;101779.43;2319283;75;51054;-72
2023/01/21 00:34:39;;;;;;;;;;;;;;;18.11;59.13;101780.20;2345334;73;50774;-73
2023/01/21 00:37:41;;;;;;;;;;;;;;;18.24;58.84;101792.75;2380944;74;51426;-72
2023/01/21 00:40:42;;;;;;;;;;;;;;;18.27;58.75;101791.10;2380189;74;51535;-72
2023/01/21 00:43:44;;;;;;;;;;;;;;;18.29;58.69;101786.44;2353030;74;50978;-72
2023/01/21 00:46:46;;;;;;;;;;;;;;;18.28;58.66;101794.95;2379371;74;51694;-71
2023/01/21 00:49:47;;;;;;;;;;;;;;;18.30;58.61;101804.69;2353851;74;50330;-73
2023/01/21 00:52:49;;;;;;;;;;;;;;;18.23;58.63;101799.92;2317958;76;52172;-73
2023/01/21 00:55:50;;;;;;;;;;;;;;;18.24;58.66;101811.50;2292325;76;51244;-72
2023/01/21 00:58:52;;;;;;;;;;;;;;;18.20;58.69;101808.77;2318394;76;50267;-72
2023/01/21 01:01:53;;;;;;;;;;;;;;;18.17;58.66;101815.27;2318399;76;50439;-73
2023/01/21 01:04:55;;;;;;;;;;;;;;;18.11;58.78;101818.57;2372721;74;49960;-72
2023/01/21 01:07:57;;;;;;;;;;;;;;;18.03;59.01;101811.29;2356059;74;51158;-72
2023/01/21 01:10:58;;;;;;;;;;;;;;;18.00;59.09;101820.94;2355386;74;50691;-73
2023/01/21 01:14:00;;;;;;;;;;;;;;;18.06;58.92;101823.54;2370285;73;50367;-71
2023/01/21 01:17:01;;;;;;;;;;;;;;;18.15;58.69;101823.95;2318214;76;50305;-72
2023/01/21 01:20:03;;;;;;;;;;;;;;;18.22;58.49;101834.41;2340012;75;51179;-72
2023/01/21 01:23:05;;;;;;;;;;;;;;;18.23;58.51;101836.59;2319844;74;51584;-74
2023/01/21 01:26:07;;;;;;;;;;;;;;;18.24;58.51;101839.64;2380891;73;51596;-72
2023/01/21 01:29:12;;;;;;;;;;;;;;;18.25;58.48;101847.50;2381142;74;50318;-71
2023/01/21 01:32:14;;;;;;;;;;;;;;;18.21;58.50;101857.33;2355999;74;51280;-72
2023/01/21 01:35:15;;;;;;;;;;;;;;;18.20;58.48;101856.48;2376976;73;50614;-71
2023/01/21 01:38:19;;;;;;;;;;;;;;;18.14;58.51;101857.61;2354571;75;51529;-74
2023/01/21 01:41:21;;;;;;;;;;;;;;;18.14;58.58;101853.59;2390942;73;51672;-73
2023/01/21 01:44:41;;;;;;;;;;;;;;;18.12;58.58;101846.20;2320852;75;52596;-72
2023/01/21 01:47:47;;;;;;;;;;;;;;;18.08;58.62;101836.77;2377031;74;50275;-72
2023/01/21 01:50:49;;;;;;;;;;;;;;;18.01;58.88;101836.54;2373597;73;50476;-74
2023/01/21 01:53:50;;;;;;;;;;;;;;;18.06;58.82;101842.29;2381628;74;50294;-72
2023/01/21 01:56:54;;;;;;;;;;;;;;;18.13;58.65;101846.53;2334195;75;49560;-73
2023/01/21 01:59:55;;;;;;;;;;;;;;;18.16;58.60;101845.75;2340528;74;50794;-72
2023/01/21 02:06:17;;;;;;;;;;;;;;;18.26;58.43;101852.36;2340545;76;22503;-72
2023/01/21 02:09:18;;;;;;;;;;;;;;;18.26;58.44;101855.03;2353072;74;51549;-72
2023/01/21 02:12:20;;;;;;;;;;;;;;;18.24;58.42;101851.19;2363931;75;52327;-72
2023/01/21 02:15:22;;;;;;;;;;;;;;;18.22;58.48;101851.83;2379075;75;50837;-72
2023/01/21 02:18:42;;;;;;;;;;;;;;;18.18;58.55;101853.61;2380371;74;50151;-72
2023/01/21 02:22:03;;;;;;;;;;;;;;;18.16;58.61;101856.94;2358123;74;52635;-73
2023/01/21 02:25:13;;;;;;;;;;;;;;;18.12;58.61;101862.27;2380945;74;50901;-72
2023/01/21 02:28:25;;;;;;;;;;;;;;;18.06;58.69;101865.89;2362431;74;50329;-71
2023/01/21 02:31:28;;;;;;;;;;;;;;;18.03;58.78;101870.22;2340029;76;50506;-72
2023/01/21 02:34:35;;;;;;;;;;;;;;;18.02;58.82;101868.51;2343154;75;51279;-73
2023/01/21 02:37:41;;;;;;;;;;;;;;;18.04;58.83;101877.75;2340397;76;50668;-73
2023/01/21 02:40:44;;;;;;;;;;;;;;;18.13;58.64;101875.99;2386091;73;50687;-73
2023/01/21 02:43:53;;;;;;;;;;;;;;;18.17;58.56;101874.71;2378503;73;51603;-72
2023/01/21 02:46:55;;;;;;;;;;;;;;;18.19;58.55;101874.08;2356033;75;50975;-72
2023/01/21 02:50:08;;;;;;;;;;;;;;;18.21;58.50;101870.72;2378827;75;51410;-73
2023/01/21 02:53:11;;;;;;;;;;;;;;;18.19;58.50;101872.73;2378769;74;50418;-73
2023/01/21 02:56:13;;;;;;;;;;;;;;;18.17;58.57;101868.85;2363948;73;50531;-73
2023/01/21 02:59:15;;;;;;;;;;;;;;;18.16;58.58;101860.48;2356324;74;52445;-71
2023/01/21 03:02:30;;;;;;;;;;;;;;;18.14;58.64;101861.63;2380719;74;51638;-72
2023/01/21 03:05:40;;;;;;;;;;;;;;;18.09;58.71;101863.91;2380753;73;51546;-74
2023/01/21 03:08:43;;;;;;;;;;;;;;;18.04;58.75;101865.19;2376941;74;51431;-72
2023/01/21 03:11:46;;;;;;;;;;;;;;;18.00;58.82;101870.48;2365429;75;52455;-73
2023/01/21 03:18:19;;;;;;;;;;;;;;;17.98;58.99;101887.22;2379466;75;22370;-72
2023/01/21 03:21:22;;;;;;;;;;;;;;;18.07;58.75;101892.17;2378917;73;51534;-72
2023/01/21 03:24:23;;;;;;;;;;;;;;;18.09;58.77;101890.19;2355916;75;51802;-74
2023/01/21 03:27:25;;;;;;;;;;;;;;;18.16;58.62;101892.62;2379131;74;51472;-72
2023/01/21 03:30:27;;;;;;;;;;;;;;;18.19;58.61;101883.45;2379139;75;51572;-71
2023/01/21 03:33:29;;;;;;;;;;;;;;;18.19;58.57;101882.11;2380368;74;51371;-73
2023/01/21 03:36:49;;;;;;;;;;;;;;;18.18;58.56;101887.09;2358078;74;52377;-72
2023/01/21 03:39:55;;;;;;;;;;;;;;;18.16;58.62;101882.38;2376037;74;50243;-75
2023/01/21 03:42:56;;;;;;;;;;;;;;;18.13;58.69;101897.42;2392296;73;51601;-74
2023/01/21 03:46:06;;;;;;;;;;;;;;;18.09;58.73;101885.34;2381060;74;51556;-72
2023/01/21 03:49:21;;;;;;;;;;;;;;;18.05;58.80;101892.31;2381096;74;50714;-72
2023/01/21 03:52:23;;;;;;;;;;;;;;;18.01;58.83;101880.23;2376436;74;51512;-72
2023/01/21 03:55:25;;;;;;;;;;;;;;;18.00;58.88;101880.36;2340474;76;50714;-72
2023/01/21 03:58:27;;;;;;;;;;;;;;;18.02;58.87;101883.74;2340450;76;50376;-72
2023/01/21 04:01:28;;;;;;;;;;;;;;;18.08;58.72;101870.24;2318268;76;51115;-72
2023/01/21 04:04:30;;;;;;;;;;;;;;;18.12;58.65;101872.98;2339627;74;50820;-72
2023/01/21 04:07:31;;;;;;;;;;;;;;;18.19;58.57;101875.41;2383496;73;51620;-71
2023/01/21 04:10:33;;;;;;;;;;;;;;;18.19;58.56;101871.39;2380998;74;50776;-72
2023/01/21 04:13:35;;;;;;;;;;;;;;;18.20;58.53;101873.06;2358016;74;51007;-73
2023/01/21 04:16:36;;;;;;;;;;;;;;;18.20;58.52;101878.42;2358931;74;50424;-72
2023/01/21 04:19:38;;;;;;;;;;;;;;;18.16;58.58;101868.52;2381019;73;50675;-72
2023/01/21 04:22:39;;;;;;;;;;;;;;;18.13;58.60;101870.13;2381086;74;51443;-73
2023/01/21 04:25:41;;;;;;;;;;;;;;;18.08;58.70;101871.58;2331472;74;51848;-72
2023/01/21 04:28:42;;;;;;;;;;;;;;;18.05;58.71;101877.58;2358093;74;51541;-71
2023/01/21 04:31:44;;;;;;;;;;;;;;;18.02;58.80;101882.41;2380920;74;51487;-73
2023/01/21 04:34:46;;;;;;;;;;;;;;;17.99;58.84;101876.84;2380324;74;50252;-72
2023/01/21 04:37:47;;;;;;;;;;;;;;;18.00;58.88;101891.91;2364454;73;50788;-72
2023/01/21 04:40:49;;;;;;;;;;;;;;;18.03;58.86;101882.27;2404590;73;50242;-73
2023/01/21 04:43:50;;;;;;;;;;;;;;;18.08;58.76;101887.15;2404333;73;51721;-71
2023/01/21 04:46:52;;;;;;;;;;;;;;;18.12;58.67;101890.39;2384944;74;51423;-73
2023/01/21 04:49:53;;;;;;;;;;;;;;;18.17;58.61;101890.78;2369240;74;51495;-71
2023/01/21 04:52:55;;;;;;;;;;;;;;;18.20;58.52;101891.81;2378731;75;52552;-72
2023/01/21 04:55:57;;;;;;;;;;;;;;;18.19;58.54;101890.14;2378983;75;50321;-72
2023/01/21 04:58:58;;;;;;;;;;;;;;;18.17;58.57;101888.11;2378792;73;50235;-74
2023/01/21 05:02:00;;;;;;;;;;;;;;;18.13;58.64;101884.86;2337760;73;49595;-72
2023/01/21 05:05:01;;;;;;;;;;;;;;;18.11;58.70;101895.38;2357872;74;50792;-71
2023/01/21 05:08:03;;;;;;;;;;;;;;;18.08;58.75;101901.05;2380683;74;50404;-72
2023/01/21 05:11:07;;;;;;;;;;;;;;;18.04;58.80;101905.36;2380801;74;51558;-72
2023/01/21 05:14:08;;;;;;;;;;;;;;;18.01;58.82;101904.83;2357686;74;52693;-72
2023/01/21 05:17:10;;;;;;;;;;;;;;;17.98;58.91;101908.65;2375470;73;50570;-72
2023/01/21 05:20:12;;;;;;;;;;;;;;;18.00;58.87;101914.67;2318125;76;50242;-73
2023/01/21 05:23:13;;;;;;;;;;;;;;;18.06;58.75;101915.44;2318103;76;50681;-71
2023/01/21 05:26:15;;;;;;;;;;;;;;;18.10;58.71;101917.31;2292003;76;51280;-72
2023/01/21 05:29:18;;;;;;;;;;;;;;;18.14;58.63;101921.89;2338554;74;50486;-72
2023/01/21 05:32:20;;;;;;;;;;;;;;;18.17;58.61;101921.59;2374014;75;50355;-72
2023/01/21 05:35:22;;;;;;;;;;;;;;;18.17;58.55;101922.42;2354540;75;50148;-72
2023/01/21 05:38:23;;;;;;;;;;;;;;;18.17;58.55;101939.00;2355972;75;52557;-72
2023/01/21 05:41:25;;;;;;;;;;;;;;;18.14;58.63;101924.58;2379030;75;51416;-74
2023/01/21 05:44:26;;;;;;;;;;;;;;;18.10;58.64;101934.72;2378756;74;51518;-72
2023/01/21 05:47:28;;;;;;;;;;;;;;;18.07;58.68;101937.70;2378900;75;50649;-72
2023/01/21 05:50:31;;;;;;;;;;;;;;;18.03;58.74;101942.53;2354543;75;50103;-73
2023/01/21 05:53:32;;;;;;;;;;;;;;;18.00;58.83;101941.96;2354697;75;51435;-73
2023/01/21 05:56:34;;;;;;;;;;;;;;;18.00;58.76;101944.13;2360141;74;51567;-73
2023/01/21 05:59:36;;;;;;;;;;;;;;;17.97;58.83;101940.92;2346794;75;51453;-73
2023/01/21 06:02:37;;;;;;;;;;;;;;;18.01;58.69;101940.98;2370433;74;51214;-72
2023/01/21 06:05:39;;;;;;;;;;;;;;;18.06;58.62;101944.91;2354717;75;50426;-73
2023/01/21 06:08:40;;;;;;;;;;;;;;;18.10;58.53;101947.28;2380997;74;50160;-72
2023/01/21 06:11:42;;;;;;;;;;;;;;;18.14;58.34;101944.16;2381039;74;50479;-72
2023/01/21 06:14:43;;;;;;;;;;;;;;;18.17;58.18;101949.72;2331379;74;52519;-73
2023/01/21 06:17:45;;;;;;;;;;;;;;;18.15;58.09;101943.16;2355732;74;51652;-73
2023/01/21 06:20:47;;;;;;;;;;;;;;;18.14;58.02;101951.36;2358152;74;51427;-73
2023/01/21 06:23:48;;;;;;;;;;;;;;;18.11;58.03;101957.86;2339461;74;51544;-73
2023/01/21 06:26:50;;;;;;;;;;;;;;;18.08;58.01;101963.98;2340337;75;50443;-73
2023/01/21 06:29:51;;;;;;;;;;;;;;;18.05;58.05;101968.64;2353480;74;50317;-73
2023/01/21 06:32:53;;;;;;;;;;;;;;;18.02;58.08;101968.94;2369049;74;50709;-73
2023/01/21 06:35:54;;;;;;;;;;;;;;;17.98;58.16;101968.91;2378793;75;50670;-72
2023/01/21 06:38:56;;;;;;;;;;;;;;;17.96;58.19;101968.20;2322283;74;52574;-73
2023/01/21 06:41:58;;;;;;;;;;;;;;;17.98;58.11;101971.58;2369174;74;50662;-73
2023/01/21 06:44:59;;;;;;;;;;;;;;;18.00;58.03;101974.94;2354554;74;51377;-73
2023/01/21 06:48:01;;;;;;;;;;;;;;;18.04;57.92;101977.68;2379098;74;51535;-73
2023/01/21 06:51:02;;;;;;;;;;;;;;;18.09;57.85;101985.28;2287499;75;52546;-73
2023/01/21 06:54:04;;;;;;;;;;;;;;;18.12;57.75;101984.14;2318133;76;51453;-73
2023/01/21 06:57:06;;;;;;;;;;;;;;;18.15;57.66;101986.02;2346140;74;51492;-72
2023/01/21 07:00:08;;;;;;;;;;;;;;;18.21;57.63;101980.56;2332491;74;51452;-73
2023/01/21 07:03:09;;;;;;;;;;;;;;;18.21;57.73;101981.42;2383456;73;51321;-73
2023/01/21 07:06:11;;;;;;;;;;;;;;;18.19;57.87;101978.55;2364264;72;50391;-73
2023/01/21 07:09:12;;;;;;;;;;;;;;;18.18;57.88;101986.22;2348457;74;50490;-73
2023/01/21 07:12:14;;;;;;;;;;;;;;;18.14;58.16;101980.83;2341644;74;50121;-73
2023/01/21 07:15:16;;;;;;;;;;;;;;;18.18;57.80;101983.03;2356180;75;51627;-73
2023/01/21 07:18:17;;;;;;;;;;;;;;;18.12;57.75;101987.66;2355084;73;50269;-73
2023/01/21 07:21:19;;;;;;;;;;;;;;;18.10;57.63;101990.14;2345819;74;50138;-73
2023/01/21 07:24:20;;;;;;;;;;;;;;;18.08;57.68;101982.73;2393785;72;50664;-73
2023/01/21 07:27:22;;;;;;;;;;;;;;;18.10;58.24;101987.45;2311960;74;51634;-73
2023/01/21 07:30:23;;;;;;;;;;;;;;;18.18;58.34;101995.59;2361009;73;51457;-72
2023/01/21 07:33:25;;;;;;;;;;;;;;;18.21;58.42;101986.78;2355629;73;51416;-72
2023/01/21 07:36:27;;;;;;;;;;;;;;;18.24;58.37;101991.84;2318491;76;52482;-72
2023/01/21 07:39:28;;;;;;;;;;;;;;;18.24;58.73;101997.20;2318302;75;51539;-73
2023/01/21 07:42:30;;;;;;;;;;;;;;;18.19;58.78;102000.82;2342499;74;51454;-72
2023/01/21 07:45:31;;;;;;;;;;;;;;;18.15;58.84;102005.27;2351607;75;51548;-73
2023/01/21 07:48:33;;;;;;;;;;;;;;;18.08;58.83;102015.72;2379254;73;50247;-72
2023/01/21 07:51:34;;;;;;;;;;;;;;;18.05;58.81;102012.00;2328103;75;49578;-72
2023/01/21 07:54:36;;;;;;;;;;;;;;;18.03;58.73;102010.82;2320261;75;50302;-72
2023/01/21 07:57:38;;;;;;;;;;;;;;;18.01;59.14;102015.98;2342279;73;50680;-74
2023/01/21 08:00:39;;;;;;;;;;;;;;;18.06;59.46;102013.70;2381685;73;51465;-75
2023/01/21 08:03:41;;;;;;;;;;;;;;;18.10;59.56;102014.24;2353953;74;51044;-74
2023/01/21 08:06:42;;;;;;;;;;;;;;;18.11;59.63;102016.79;2379987;73;51517;-74
2023/01/21 08:09:44;;;;;;;;;;;;;;;18.16;59.18;102009.16;2380802;74;50393;-74
2023/01/21 08:12:46;;;;;;;;;;;;;;;18.21;59.10;102014.05;2380188;74;50282;-74
2023/01/21 08:15:51;;;;;;;;;;;;;;;18.24;59.30;102010.59;2345485;75;51178;-76
2023/01/21 08:18:53;;;;;;;;;;;;;;;18.24;59.41;102013.78;2343086;74;51489;-75
2023/01/21 08:21:55;;;;;;;;;;;;;;;18.20;59.48;102009.19;2356779;74;50843;-73
2023/01/21 08:24:56;;;;;;;;;;;;;;;18.20;59.57;102005.67;2349532;74;50171;-75
2023/01/21 08:27:58;;;;;;;;;;;;;;;18.17;59.60;102008.16;2305642;74;51708;-74
2023/01/21 08:31:04;;;;;;;;;;;;;;;18.13;59.67;102020.14;2375527;73;51544;-74
2023/01/21 08:34:06;;;;;;;;;;;;;;;18.10;59.68;102015.58;2367779;74;50698;-74
2023/01/21 08:37:07;;;;;;;;;;;;;;;18.07;59.75;102015.38;2321998;74;50795;-74
2023/01/21 08:40:09;;;;;;;;;;;;;;;18.06;59.83;102006.51;2345682;74;52521;-73
2023/01/21 08:43:11;;;;;;;;;;;;;;;18.05;60.19;102007.98;2340362;76;51543;-74
2023/01/21 08:46:13;;;;;;;;;;;;;;;18.08;60.23;102001.48;2338496;74;51607;-74
2023/01/21 08:49:15;;;;;;;;;;;;;;;18.13;60.40;102014.78;2358317;74;51513;-73
2023/01/21 08:52:16;;;;;;;;;;;;;;;18.16;60.09;102008.28;2331099;74;51656;-75
2023/01/21 08:55:18;;;;;;;;;;;;;;;18.16;59.97;102005.61;2380951;73;51494;-74
2023/01/21 08:58:19;;;;;;;;;;;;;;;18.14;59.97;102015.66;2378621;74;51511;-74
2023/01/21 09:01:21;;;;;;;;;;;;;;;18.11;60.17;102015.45;2367083;73;50085;-73
2023/01/21 09:04:22;;;;;;;;;;;;;;;18.11;60.13;102009.22;2343162;74;49618;-75
2023/01/21 09:07:24;;;;;;;;;;;;;;;18.12;60.01;101999.71;2320495;74;50400;-74
2023/01/21 09:13:45;;;;;;;;;;;;;;;18.05;60.09;102012.83;2340783;74;24336;-75
2023/01/21 09:16:50;;;;;;;;;;;;;;;18.01;60.15;102010.63;2343297;75;52422;-73
2023/01/21 09:19:51;;;;;;;;;;;;;;;18.04;60.37;102004.97;2348265;74;51670;-72
2023/01/21 09:22:53;;;;;;;;;;;;;;;18.03;60.21;102014.84;2380785;73;51528;-73
2023/01/21 09:26:02;;;;;;;;;;;;;;;18.09;60.07;102021.95;2358137;73;51549;-73
2023/01/21 09:29:04;;;;;;;;;;;;;;;18.11;60.09;102015.92;2346325;74;51033;-75
2023/01/21 09:32:06;;;;;;;;;;;;;;;18.12;60.11;102009.59;2372728;73;52429;-73
2023/01/21 09:35:08;;;;;;;;;;;;;;;18.12;60.42;102010.93;2380146;74;51587;-74
2023/01/21 09:38:11;;;;;;;;;;;;;;;18.14;60.37;102010.30;2352971;74;50506;-74
2023/01/21 09:41:20;;;;;;;;;;;;;;;18.14;60.40;102011.13;2352446;74;24451;-74
2023/01/21 09:44:42;;;;;;;;;;;;;;;18.13;60.54;102012.60;2342259;74;51400;-75
2023/01/21 09:47:42;;;;;;;;;;;;;;;18.12;60.48;102017.63;2378609;73;22232;-74
2023/01/21 09:50:44;;;;;;;;;;;;;;;18.12;60.35;102022.98;2382186;73;51514;-73
2023/01/21 09:53:47;;;;;;;;;;;;;;;18.13;60.32;102020.64;2363341;74;52512;-74
2023/01/21 09:56:59;;;;;;;;;;;;;;;18.12;60.36;102020.30;2360908;74;50199;-73
2023/01/21 10:00:09;;;;;;;;;;;;;;;18.12;60.24;102010.93;2340316;75;50234;-73
2023/01/21 10:03:15;;;;;;;;;;;;;;;18.13;59.95;102017.46;2346939;74;51612;-75
2023/01/21 10:06:18;;;;;;;;;;;;;;;18.15;59.71;102008.79;2369636;73;51276;-75
2023/01/21 10:09:24;;;;;;;;;;;;;;;18.12;59.87;102005.06;2340298;74;50470;-75
2023/01/21 10:12:28;;;;;;;;;;;;;;;18.07;59.69;102008.69;2339940;75;51602;-74
2023/01/21 10:15:37;;;;;;;;;;;;;;;18.00;59.79;102013.77;2363998;74;51469;-75
2023/01/21 10:18:39;;;;;;;;;;;;;;;17.95;59.86;102006.66;2342208;74;52484;-75
2023/01/21 10:21:45;;;;;;;;;;;;;;;17.91;60.02;102003.11;2380927;74;50708;-76
2023/01/21 10:24:54;;;;;;;;;;;;;;;17.91;60.01;101999.94;2379662;74;52321;-75
2023/01/21 10:27:57;;;;;;;;;;;;;;;17.86;60.12;101999.52;2336481;74;50342;-75
2023/01/21 10:31:04;;;;;;;;;;;;;;;17.84;60.15;101996.98;2357855;74;52965;-74
2023/01/21 10:34:14;;;;;;;;;;;;;;;17.84;60.03;102002.83;2380669;73;50775;-74
2023/01/21 10:37:36;;;;;;;;;;;;;;;17.81;60.04;101999.95;2360649;73;51625;-75
2023/01/21 10:40:42;;;;;;;;;;;;;;;17.85;59.94;101989.78;2334894;75;51506;-75
2023/01/21 10:43:51;;;;;;;;;;;;;;;17.97;59.64;101992.64;2299444;76;52492;-75
2023/01/21 10:47:09;;;;;;;;;;;;;;;18.04;59.40;101981.70;2392847;72;50278;-74
2023/01/21 10:50:21;;;;;;;;;;;;;;;18.10;59.31;101975.41;2349244;74;50829;-75
2023/01/21 10:53:25;;;;;;;;;;;;;;;18.15;59.13;101983.84;2308316;74;50733;-74
2023/01/21 10:56:46;;;;;;;;;;;;;;;18.17;58.91;101977.84;2355976;74;51603;-74
2023/01/21 10:59:48;;;;;;;;;;;;;;;18.16;58.92;101977.48;2364670;74;51568;-73
2023/01/21 11:02:51;;;;;;;;;;;;;;;18.17;58.85;101986.72;2340069;75;51554;-74
2023/01/21 11:05:53;;;;;;;;;;;;;;;18.16;58.84;101976.14;2340153;76;51576;-74
2023/01/21 11:08:55;;;;;;;;;;;;;;;18.18;58.74;101972.83;2292151;76;52447;-74
2023/01/21 11:11:57;;;;;;;;;;;;;;;18.14;58.73;101966.09;2335105;74;50588;-74
2023/01/21 11:15:00;;;;;;;;;;;;;;;18.08;59.04;101963.98;2356877;74;50658;-73
2023/01/21 11:18:02;;;;;;;;;;;;;;;18.05;59.16;101957.09;2363229;74;50830;-73
2023/01/21 11:21:17;;;;;;;;;;;;;;;18.01;59.41;101953.04;2309710;76;52499;-74
2023/01/21 11:24:22;;;;;;;;;;;;;;;18.12;59.39;101946.64;2339883;74;50838;-73
2023/01/21 11:27:34;;;;;;;;;;;;;;;18.16;59.46;101934.62;2340506;76;50792;-76
2023/01/21 11:30:37;;;;;;;;;;;;;;;18.16;59.41;101942.66;2348643;74;50799;-73
2023/01/21 11:33:38;;;;;;;;;;;;;;;18.14;59.43;101939.30;2357747;74;52463;-73
2023/01/21 11:36:56;;;;;;;;;;;;;;;18.16;59.19;101938.64;2380790;73;51608;-73
2023/01/21 11:39:58;;;;;;;;;;;;;;;18.13;59.11;101925.55;2380868;74;51495;-73
2023/01/21 11:42:59;;;;;;;;;;;;;;;18.12;59.03;101922.53;2378353;74;51505;-73
2023/01/21 11:46:03;;;;;;;;;;;;;;;18.08;59.00;101917.95;2369467;73;52511;-73
2023/01/21 11:49:09;;;;;;;;;;;;;;;18.04;59.09;101912.56;2377446;74;50903;-73
2023/01/21 11:52:18;;;;;;;;;;;;;;;17.92;59.37;101911.90;2367171;74;50346;-73
2023/01/21 11:55:23;;;;;;;;;;;;;;;17.90;59.42;101901.83;2318585;75;50295;-73
2023/01/21 11:58:26;;;;;;;;;;;;;;;17.95;59.33;101899.55;2351268;74;52601;-73
2023/01/21 12:01:28;;;;;;;;;;;;;;;18.05;59.11;101904.86;2380806;73;51612;-74
2023/01/21 12:04:29;;;;;;;;;;;;;;;18.08;59.01;101892.50;2378162;74;51479;-74
2023/01/21 12:07:32;;;;;;;;;;;;;;;18.13;58.85;101890.72;2380975;74;51545;-73
2023/01/21 12:10:39;;;;;;;;;;;;;;;18.16;58.70;101889.08;2356433;74;51370;-73
2023/01/21 12:13:45;;;;;;;;;;;;;;;18.14;58.63;101888.41;2370721;73;50390;-73
2023/01/21 12:16:48;;;;;;;;;;;;;;;18.13;58.66;101888.88;2378282;73;51543;-73
2023/01/21 12:19:51;;;;;;;;;;;;;;;18.11;58.64;101893.58;2379013;74;52286;-73
2023/01/21 12:23:04;;;;;;;;;;;;;;;18.08;58.66;101882.30;2372996;74;52485;-73
2023/01/21 12:26:25;;;;;;;;;;;;;;;18.06;58.73;101880.63;2378403;74;51620;-73
2023/01/21 12:29:45;;;;;;;;;;;;;;;18.05;58.67;101879.42;2378077;74;50358;-73
2023/01/21 12:32:48;;;;;;;;;;;;;;;18.05;58.64;101874.90;2377743;73;50385;-73
2023/01/21 12:35:54;;;;;;;;;;;;;;;17.96;58.83;101871.80;2377275;74;50226;-73
2023/01/21 12:39:09;;;;;;;;;;;;;;;17.96;58.84;101862.92;2375078;73;50502;-73
2023/01/21 12:42:15;;;;;;;;;;;;;;;18.03;58.72;101870.22;2379037;74;50490;-73
2023/01/21 12:45:18;;;;;;;;;;;;;;;18.09;58.60;101867.42;2373895;73;51486;-73
2023/01/21 12:48:21;;;;;;;;;;;;;;;18.15;58.46;101860.12;2378784;74;50404;-73
2023/01/21 12:51:34;;;;;;;;;;;;;;;18.16;58.36;101864.97;2343401;74;52715;-73
2023/01/21 12:54:43;;;;;;;;;;;;;;;18.15;58.29;101868.16;2351376;74;50480;-74
2023/01/21 12:57:49;;;;;;;;;;;;;;;18.13;58.31;101858.58;2340171;74;51445;-73
2023/01/21 13:00:51;;;;;;;;;;;;;;;18.10;58.26;101861.06;2340236;75;51517;-73
2023/01/21 13:03:57;;;;;;;;;;;;;;;18.06;58.31;101861.88;2353228;74;52409;-73
2023/01/21 13:07:00;;;;;;;;;;;;;;;18.03;58.29;101866.20;2397685;72;50374;-73
2023/01/21 13:10:03;;;;;;;;;;;;;;;18.02;58.19;101861.81;2424030;72;51601;-73
2023/01/21 13:13:06;;;;;;;;;;;;;;;18.02;58.08;101864.99;2382443;73;51643;-73
2023/01/21 13:16:08;;;;;;;;;;;;;;;17.95;58.33;101856.70;2343104;74;52408;-72
2023/01/21 13:19:10;;;;;;;;;;;;;;;17.95;58.32;101859.88;2340110;74;51496;-73
2023/01/21 13:22:31;;;;;;;;;;;;;;;17.99;58.28;101859.44;2348691;74;50296;-73
2023/01/21 13:25:51;;;;;;;;;;;;;;;18.03;58.09;101841.22;2380766;74;50348;-73
2023/01/21 13:29:11;;;;;;;;;;;;;;;18.10;57.85;101846.33;2358110;74;51271;-73
2023/01/21 13:32:29;;;;;;;;;;;;;;;18.15;57.67;101843.20;2380747;73;51504;-73
2023/01/21 13:35:38;;;;;;;;;;;;;;;18.14;57.47;101836.17;2379447;73;50518;-74
2023/01/21 13:38:41;;;;;;;;;;;;;;;18.11;57.53;101835.98;2342628;74;50738;-73
2023/01/21 13:41:45;;;;;;;;;;;;;;;18.09;57.58;101826.41;2343498;74;50202;-72
2023/01/21 13:45:06;;;;;;;;;;;;;;;18.04;57.62;101807.61;2340118;75;50481;-73
2023/01/21 13:48:25;;;;;;;;;;;;;;;18.02;57.74;101810.09;2354280;74;50847;-73
2023/01/21 13:51:34;;;;;;;;;;;;;;;18.00;57.75;101824.95;2380389;73;51455;-74
2023/01/21 13:54:52;;;;;;;;;;;;;;;17.97;57.87;101842.67;2380676;73;50801;-73
2023/01/21 13:58:04;;;;;;;;;;;;;;;17.91;58.18;101847.30;2378007;74;50458;-74
2023/01/21 14:01:08;;;;;;;;;;;;;;;17.93;58.06;101827.92;2340525;74;51469;-72
2023/01/21 14:04:14;;;;;;;;;;;;;;;17.97;57.96;101809.20;2352234;74;51493;-73
2023/01/21 14:07:20;;;;;;;;;;;;;;;18.06;57.76;101820.36;2370575;74;52435;-73
2023/01/21 14:10:26;;;;;;;;;;;;;;;18.11;57.70;101796.28;2353291;74;51541;-73
2023/01/21 14:13:46;;;;;;;;;;;;;;;18.15;57.65;101785.11;2344498;74;50790;-73
2023/01/21 14:17:06;;;;;;;;;;;;;;;18.15;57.60;101760.17;2380776;73;50763;-72
2023/01/21 14:20:26;;;;;;;;;;;;;;;18.13;57.58;101750.09;2355560;74;51268;-72
2023/01/21 14:23:46;;;;;;;;;;;;;;;18.12;57.57;101740.39;2378738;73;51590;-72
2023/01/21 14:27:04;;;;;;;;;;;;;;;18.03;57.69;101732.28;2364232;73;50310;-72
2023/01/21 14:30:10;;;;;;;;;;;;;;;18.01;57.80;101758.87;2342468;74;51589;-72
2023/01/21 14:33:14;;;;;;;;;;;;;;;18.03;57.94;101780.97;2318625;74;50896;-72
2023/01/21 14:36:17;;;;;;;;;;;;;;;18.02;58.11;101779.30;2389301;72;51704;-72
2023/01/21 14:39:20;;;;;;;;;;;;;;;17.99;58.01;101787.13;2373109;74;51595;-72
2023/01/21 14:42:25;;;;;;;;;;;;;;;17.99;57.97;101797.84;2341883;74;52407;-73
2023/01/21 14:49:10;;;;;;;;;;;;;;;18.08;57.87;101796.59;2381646;73;23155;-71
2023/01/21 14:52:17;;;;;;;;;;;;;;;18.11;57.77;101798.95;2391167;74;51589;-71
2023/01/21 14:55:28;;;;;;;;;;;;;;;18.12;57.75;101800.16;2360274;74;52503;-72
2023/01/21 14:58:30;;;;;;;;;;;;;;;18.11;57.71;101774.84;2325225;75;52557;-72
2023/01/21 15:01:33;;;;;;;;;;;;;;;18.05;57.86;101761.07;2340444;75;50186;-72
2023/01/21 15:04:38;;;;;;;;;;;;;;;18.02;57.91;101737.28;2345533;75;50500;-72
2023/01/21 15:07:39;;;;;;;;;;;;;;;18.00;57.89;101749.97;2341101;74;22463;-72
2023/01/21 15:10:40;;;;;;;;;;;;;;;18.00;57.94;101746.46;2333334;75;52313;-71
2023/01/21 15:13:42;;;;;;;;;;;;;;;17.95;58.01;101762.14;2337425;75;51396;-72
2023/01/21 15:16:44;;;;;;;;;;;;;;;17.97;57.93;101758.31;2373904;74;51627;-72
2023/01/21 15:19:45;;;;;;;;;;;;;;;17.90;58.05;101753.72;2333052;74;51548;-73
2023/01/21 15:22:49;;;;;;;;;;;;;;;17.90;58.12;101733.13;2280625;74;52377;-73
2023/01/21 15:26:04;;;;;;;;;;;;;;;17.95;58.05;101736.20;2301106;75;50705;-72
2023/01/21 15:29:19;;;;;;;;;;;;;;;17.97;58.02;101728.86;2335329;74;50340;-73
2023/01/21 15:32:25;;;;;;;;;;;;;;;18.04;58.09;101726.42;2337586;76;50702;-73
2023/01/21 15:35:30;;;;;;;;;;;;;;;18.11;58.41;101738.22;2334305;74;51749;-73
2023/01/21 15:38:32;;;;;;;;;;;;;;;18.16;58.30;101741.28;2418786;73;50718;-72
2023/01/21 15:41:35;;;;;;;;;;;;;;;18.23;58.18;101741.48;2333710;75;51509;-72
2023/01/21 15:44:44;;;;;;;;;;;;;;;18.19;58.40;101734.77;2346295;74;54289;-72
2023/01/21 15:47:47;;;;;;;;;;;;;;;18.16;58.58;101745.77;2324213;76;51285;-72
2023/01/21 15:50:53;;;;;;;;;;;;;;;18.13;58.73;101748.76;2347549;74;50133;-72
2023/01/21 15:53:56;;;;;;;;;;;;;;;18.08;58.87;101747.88;2343989;74;51587;-72
2023/01/21 15:57:09;;;;;;;;;;;;;;;18.06;59.04;101757.42;2289830;76;52354;-72
2023/01/21 16:00:21;;;;;;;;;;;;;;;18.04;58.93;101751.87;2318347;75;49619;-72